sensor_id;sensor_type;location;lat;lon;timestamp;P1;durP1;ratioP1;P2;durP2;ratioP2
70543;SDS011;58097;48.364;-1.224;2023-05-29T00:00:29;24.80;;;7.80;;
70543;SDS011;58097;48.364;-1.224;2023-05-29T00:02:54;15.65;;;7.15;;
70543;SDS011;58097;48.364;-1.224;2023-05-29T00:05:20;22.83;;;7.38;;
70543;SDS011;58097;48.364;-1.224;2023-05-29T00:07:45;22.38;;;8.23;;
70543;SDS011;58097;48.364;-1.224;2023-05-29T00:10:11;24.20;;;6.93;;
70543;SDS011;58097;48.364;-1.224;2023-05-29T00:12:37;16.75;;;7.57;;
70543;SDS011;58097;48.364;-1.224;2023-05-29T00:15:04;29.80;;;7.30;;
70543;SDS011;58097;48.364;-1.224;2023-05-29T00:17:30;25.17;;;7.40;;
70543;SDS011;58097;48.364;-1.224;2023-05-29T00:19:59;19.15;;;7.70;;
70543;SDS011;58097;48.364;-1.224;2023-05-29T00:22:26;21.90;;;7.30;;
70543;SDS011;58097;48.364;-1.224;2023-05-29T00:24:52;21.70;;;7.90;;
70543;SDS011;58097;48.364;-1.224;2023-05-29T00:27:17;24.60;;;8.10;;
70543;SDS011;58097;48.364;-1.224;2023-05-29T00:29:43;29.08;;;8.05;;
70543;SDS011;58097;48.364;-1.224;2023-05-29T00:32:09;22.08;;;7.85;;
70543;SDS011;58097;48.364;-1.224;2023-05-29T00:34:34;23.25;;;8.57;;
70543;SDS011;58097;48.364;-1.224;2023-05-29T00:37:00;29.80;;;7.82;;
70543;SDS011;58097;48.364;-1.224;2023-05-29T00:39:26;23.73;;;8.25;;
70543;SDS011;58097;48.364;-1.224;2023-05-29T00:41:52;20.27;;;8.40;;
70543;SDS011;58097;48.364;-1.224;2023-05-29T00:44:20;15.60;;;7.45;;
70543;SDS011;58097;48.364;-1.224;2023-05-29T00:46:46;18.10;;;7.78;;
70543;SDS011;58097;48.364;-1.224;2023-05-29T00:49:13;28.70;;;8.50;;
70543;SDS011;58097;48.364;-1.224;2023-05-29T00:51:39;31.40;;;9.32;;
70543;SDS011;58097;48.364;-1.224;2023-05-29T00:54:07;20.50;;;7.80;;
70543;SDS011;58097;48.364;-1.224;2023-05-29T00:56:34;23.15;;;8.95;;
70543;SDS011;58097;48.364;-1.224;2023-05-29T00:59:00;27.92;;;8.45;;
70543;SDS011;58097;48.364;-1.224;2023-05-29T01:01:26;21.13;;;8.13;;
70543;SDS011;58097;48.364;-1.224;2023-05-29T01:03:52;22.08;;;8.70;;
70543;SDS011;58097;48.364;-1.224;2023-05-29T01:06:20;17.50;;;7.88;;
70543;SDS011;58097;48.364;-1.224;2023-05-29T01:08:46;16.23;;;7.75;;
70543;SDS011;58097;48.364;-1.224;2023-05-29T01:14:06;22.85;;;8.95;;
70543;SDS011;58097;48.364;-1.224;2023-05-29T01:16:39;17.45;;;8.23;;
70543;SDS011;58097;48.364;-1.224;2023-05-29T01:19:30;20.40;;;7.82;;
70543;SDS011;58097;48.364;-1.224;2023-05-29T01:24:48;16.48;;;7.10;;
70543;SDS011;58097;48.364;-1.224;2023-05-29T01:27:21;16.10;;;6.82;;
70543;SDS011;58097;48.364;-1.224;2023-05-29T01:29:50;25.05;;;9.25;;
70543;SDS011;58097;48.364;-1.224;2023-05-29T01:32:17;20.05;;;8.18;;
70543;SDS011;58097;48.364;-1.224;2023-05-29T01:34:43;24.52;;;9.00;;
70543;SDS011;58097;48.364;-1.224;2023-05-29T01:37:08;23.40;;;7.60;;
70543;SDS011;58097;48.364;-1.224;2023-05-29T01:39:34;26.58;;;8.40;;
70543;SDS011;58097;48.364;-1.224;2023-05-29T01:41:59;20.65;;;7.78;;
70543;SDS011;58097;48.364;-1.224;2023-05-29T01:44:26;18.17;;;7.93;;
70543;SDS011;58097;48.364;-1.224;2023-05-29T01:46:53;18.55;;;7.50;;
70543;SDS011;58097;48.364;-1.224;2023-05-29T01:49:19;13.95;;;6.75;;
70543;SDS011;58097;48.364;-1.224;2023-05-29T01:51:45;19.25;;;7.72;;
70543;SDS011;58097;48.364;-1.224;2023-05-29T01:54:11;24.25;;;7.75;;
70543;SDS011;58097;48.364;-1.224;2023-05-29T01:56:36;17.23;;;8.48;;
70543;SDS011;58097;48.364;-1.224;2023-05-29T01:59:03;23.40;;;7.30;;
70543;SDS011;58097;48.364;-1.224;2023-05-29T02:01:29;23.90;;;8.23;;
70543;SDS011;58097;48.364;-1.224;2023-05-29T02:03:54;26.83;;;7.75;;
70543;SDS011;58097;48.364;-1.224;2023-05-29T02:06:20;15.23;;;6.90;;
70543;SDS011;58097;48.364;-1.224;2023-05-29T02:08:45;19.58;;;6.85;;
70543;SDS011;58097;48.364;-1.224;2023-05-29T02:11:11;14.20;;;6.60;;
70543;SDS011;58097;48.364;-1.224;2023-05-29T02:13:37;19.88;;;7.15;;
70543;SDS011;58097;48.364;-1.224;2023-05-29T02:16:02;18.48;;;6.97;;
70543;SDS011;58097;48.364;-1.224;2023-05-29T02:18:28;27.42;;;7.05;;
70543;SDS011;58097;48.364;-1.224;2023-05-29T02:20:53;18.45;;;7.22;;
70543;SDS011;58097;48.364;-1.224;2023-05-29T02:23:18;21.02;;;8.20;;
70543;SDS011;58097;48.364;-1.224;2023-05-29T02:25:44;18.27;;;7.13;;
70543;SDS011;58097;48.364;-1.224;2023-05-29T02:28:10;20.13;;;7.28;;
70543;SDS011;58097;48.364;-1.224;2023-05-29T02:30:35;22.50;;;7.43;;
70543;SDS011;58097;48.364;-1.224;2023-05-29T02:33:00;19.90;;;7.22;;
70543;SDS011;58097;48.364;-1.224;2023-05-29T02:35:26;17.58;;;8.02;;
70543;SDS011;58097;48.364;-1.224;2023-05-29T02:37:51;21.80;;;7.40;;
70543;SDS011;58097;48.364;-1.224;2023-05-29T02:40:17;15.68;;;6.78;;
70543;SDS011;58097;48.364;-1.224;2023-05-29T02:42:44;21.60;;;8.05;;
70543;SDS011;58097;48.364;-1.224;2023-05-29T02:45:09;13.45;;;6.93;;
70543;SDS011;58097;48.364;-1.224;2023-05-29T02:47:35;17.58;;;6.72;;
70543;SDS011;58097;48.364;-1.224;2023-05-29T02:50:01;14.98;;;6.78;;
70543;SDS011;58097;48.364;-1.224;2023-05-29T02:52:27;21.33;;;7.43;;
70543;SDS011;58097;48.364;-1.224;2023-05-29T02:54:53;23.10;;;6.53;;
70543;SDS011;58097;48.364;-1.224;2023-05-29T02:57:19;11.52;;;6.15;;
70543;SDS011;58097;48.364;-1.224;2023-05-29T02:59:45;17.33;;;7.13;;
70543;SDS011;58097;48.364;-1.224;2023-05-29T03:02:11;16.60;;;6.93;;
70543;SDS011;58097;48.364;-1.224;2023-05-29T03:04:36;20.55;;;7.53;;
70543;SDS011;58097;48.364;-1.224;2023-05-29T03:07:01;20.73;;;6.97;;
70543;SDS011;58097;48.364;-1.224;2023-05-29T03:09:27;18.38;;;6.25;;
70543;SDS011;58097;48.364;-1.224;2023-05-29T03:11:52;13.15;;;5.78;;
70543;SDS011;58097;48.364;-1.224;2023-05-29T03:14:18;15.50;;;6.10;;
70543;SDS011;58097;48.364;-1.224;2023-05-29T03:16:43;14.63;;;6.18;;
70543;SDS011;58097;48.364;-1.224;2023-05-29T03:19:09;17.98;;;6.93;;
70543;SDS011;58097;48.364;-1.224;2023-05-29T03:21:35;10.27;;;5.80;;
70543;SDS011;58097;48.364;-1.224;2023-05-29T03:24:01;13.25;;;6.22;;
70543;SDS011;58097;48.364;-1.224;2023-05-29T03:26:27;17.00;;;7.07;;
70543;SDS011;58097;48.364;-1.224;2023-05-29T03:28:53;19.05;;;6.00;;
70543;SDS011;58097;48.364;-1.224;2023-05-29T03:31:19;14.70;;;6.05;;
70543;SDS011;58097;48.364;-1.224;2023-05-29T03:33:44;19.08;;;6.75;;
70543;SDS011;58097;48.364;-1.224;2023-05-29T03:36:10;20.60;;;6.38;;
70543;SDS011;58097;48.364;-1.224;2023-05-29T03:38:36;14.40;;;6.47;;
70543;SDS011;58097;48.364;-1.224;2023-05-29T03:41:01;12.68;;;5.78;;
70543;SDS011;58097;48.364;-1.224;2023-05-29T03:43:26;14.05;;;6.97;;
70543;SDS011;58097;48.364;-1.224;2023-05-29T03:45:52;16.40;;;6.82;;
70543;SDS011;58097;48.364;-1.224;2023-05-29T03:48:17;15.63;;;5.63;;
70543;SDS011;58097;48.364;-1.224;2023-05-29T03:50:42;13.60;;;6.07;;
70543;SDS011;58097;48.364;-1.224;2023-05-29T03:53:08;19.25;;;6.70;;
70543;SDS011;58097;48.364;-1.224;2023-05-29T03:55:33;10.85;;;5.82;;
70543;SDS011;58097;48.364;-1.224;2023-05-29T03:57:58;14.50;;;6.43;;
70543;SDS011;58097;48.364;-1.224;2023-05-29T04:00:23;13.13;;;5.53;;
70543;SDS011;58097;48.364;-1.224;2023-05-29T04:02:49;22.05;;;6.68;;
70543;SDS011;58097;48.364;-1.224;2023-05-29T04:05:14;17.55;;;6.20;;
70543;SDS011;58097;48.364;-1.224;2023-05-29T04:07:40;15.20;;;5.40;;
70543;SDS011;58097;48.364;-1.224;2023-05-29T04:10:06;14.75;;;7.00;;
70543;SDS011;58097;48.364;-1.224;2023-05-29T04:12:32;11.80;;;6.35;;
70543;SDS011;58097;48.364;-1.224;2023-05-29T04:14:58;14.05;;;5.82;;
70543;SDS011;58097;48.364;-1.224;2023-05-29T04:17:24;17.77;;;5.50;;
70543;SDS011;58097;48.364;-1.224;2023-05-29T04:19:49;14.98;;;6.10;;
70543;SDS011;58097;48.364;-1.224;2023-05-29T04:22:15;13.43;;;5.38;;
70543;SDS011;58097;48.364;-1.224;2023-05-29T04:24:40;13.55;;;5.47;;
70543;SDS011;58097;48.364;-1.224;2023-05-29T04:27:07;17.73;;;6.35;;
70543;SDS011;58097;48.364;-1.224;2023-05-29T04:29:41;21.90;;;6.78;;
70543;SDS011;58097;48.364;-1.224;2023-05-29T04:34:36;12.70;;;6.20;;
70543;SDS011;58097;48.364;-1.224;2023-05-29T04:37:03;16.67;;;5.40;;
70543;SDS011;58097;48.364;-1.224;2023-05-29T04:39:29;13.63;;;5.10;;
70543;SDS011;58097;48.364;-1.224;2023-05-29T04:41:55;10.00;;;5.07;;
70543;SDS011;58097;48.364;-1.224;2023-05-29T04:44:23;10.88;;;5.53;;
70543;SDS011;58097;48.364;-1.224;2023-05-29T04:46:51;16.40;;;6.07;;
70543;SDS011;58097;48.364;-1.224;2023-05-29T04:49:17;12.77;;;5.80;;
70543;SDS011;58097;48.364;-1.224;2023-05-29T04:51:43;12.63;;;5.88;;
70543;SDS011;58097;48.364;-1.224;2023-05-29T04:54:10;19.27;;;5.43;;
70543;SDS011;58097;48.364;-1.224;2023-05-29T04:56:36;14.85;;;5.53;;
70543;SDS011;58097;48.364;-1.224;2023-05-29T04:59:01;13.10;;;5.38;;
70543;SDS011;58097;48.364;-1.224;2023-05-29T05:01:27;16.48;;;4.75;;
70543;SDS011;58097;48.364;-1.224;2023-05-29T05:03:53;13.48;;;4.82;;
70543;SDS011;58097;48.364;-1.224;2023-05-29T05:06:21;10.82;;;5.00;;
70543;SDS011;58097;48.364;-1.224;2023-05-29T05:08:47;11.77;;;4.60;;
70543;SDS011;58097;48.364;-1.224;2023-05-29T05:11:12;11.40;;;5.20;;
70543;SDS011;58097;48.364;-1.224;2023-05-29T05:13:38;12.18;;;5.53;;
70543;SDS011;58097;48.364;-1.224;2023-05-29T05:16:04;12.48;;;4.75;;
70543;SDS011;58097;48.364;-1.224;2023-05-29T05:18:29;12.70;;;4.68;;
70543;SDS011;58097;48.364;-1.224;2023-05-29T05:20:55;12.23;;;5.18;;
70543;SDS011;58097;48.364;-1.224;2023-05-29T05:23:20;16.42;;;5.13;;
70543;SDS011;58097;48.364;-1.224;2023-05-29T05:25:46;8.00;;;4.47;;
70543;SDS011;58097;48.364;-1.224;2023-05-29T05:28:11;14.23;;;4.90;;
70543;SDS011;58097;48.364;-1.224;2023-05-29T05:30:38;12.15;;;4.78;;
70543;SDS011;58097;48.364;-1.224;2023-05-29T05:33:03;19.70;;;5.93;;
70543;SDS011;58097;48.364;-1.224;2023-05-29T05:35:29;10.75;;;5.03;;
70543;SDS011;58097;48.364;-1.224;2023-05-29T05:37:54;12.77;;;5.70;;
70543;SDS011;58097;48.364;-1.224;2023-05-29T05:40:22;14.00;;;5.82;;
70543;SDS011;58097;48.364;-1.224;2023-05-29T05:42:48;17.40;;;6.15;;
70543;SDS011;58097;48.364;-1.224;2023-05-29T05:45:13;20.40;;;5.30;;
70543;SDS011;58097;48.364;-1.224;2023-05-29T05:47:39;17.33;;;4.70;;
70543;SDS011;58097;48.364;-1.224;2023-05-29T05:50:04;8.80;;;3.65;;
70543;SDS011;58097;48.364;-1.224;2023-05-29T05:52:30;7.65;;;4.88;;
70543;SDS011;58097;48.364;-1.224;2023-05-29T05:54:57;12.93;;;5.15;;
70543;SDS011;58097;48.364;-1.224;2023-05-29T05:57:23;7.38;;;4.35;;
70543;SDS011;58097;48.364;-1.224;2023-05-29T05:59:48;14.77;;;5.28;;
70543;SDS011;58097;48.364;-1.224;2023-05-29T06:02:13;13.43;;;5.82;;
70543;SDS011;58097;48.364;-1.224;2023-05-29T06:04:39;14.32;;;4.97;;
70543;SDS011;58097;48.364;-1.224;2023-05-29T06:07:05;13.15;;;5.22;;
70543;SDS011;58097;48.364;-1.224;2023-05-29T06:09:31;13.93;;;4.85;;
70543;SDS011;58097;48.364;-1.224;2023-05-29T06:11:56;10.25;;;4.97;;
70543;SDS011;58097;48.364;-1.224;2023-05-29T06:14:22;12.85;;;5.75;;
70543;SDS011;58097;48.364;-1.224;2023-05-29T06:16:49;14.77;;;5.00;;
70543;SDS011;58097;48.364;-1.224;2023-05-29T06:19:15;13.32;;;4.63;;
70543;SDS011;58097;48.364;-1.224;2023-05-29T06:21:41;16.17;;;5.03;;
70543;SDS011;58097;48.364;-1.224;2023-05-29T06:24:06;12.45;;;5.10;;
70543;SDS011;58097;48.364;-1.224;2023-05-29T06:26:31;9.43;;;5.28;;
70543;SDS011;58097;48.364;-1.224;2023-05-29T06:28:57;16.38;;;5.07;;
70543;SDS011;58097;48.364;-1.224;2023-05-29T06:31:22;14.15;;;4.95;;
70543;SDS011;58097;48.364;-1.224;2023-05-29T06:33:48;13.73;;;5.68;;
70543;SDS011;58097;48.364;-1.224;2023-05-29T06:36:13;10.25;;;4.97;;
70543;SDS011;58097;48.364;-1.224;2023-05-29T06:38:38;11.85;;;5.28;;
70543;SDS011;58097;48.364;-1.224;2023-05-29T06:41:05;15.70;;;4.95;;
70543;SDS011;58097;48.364;-1.224;2023-05-29T06:43:30;12.52;;;6.28;;
70543;SDS011;58097;48.364;-1.224;2023-05-29T06:45:55;13.02;;;5.18;;
70543;SDS011;58097;48.364;-1.224;2023-05-29T06:48:21;12.98;;;5.93;;
70543;SDS011;58097;48.364;-1.224;2023-05-29T06:50:47;18.02;;;5.63;;
70543;SDS011;58097;48.364;-1.224;2023-05-29T06:53:13;16.95;;;6.05;;
70543;SDS011;58097;48.364;-1.224;2023-05-29T06:55:38;10.30;;;5.20;;
70543;SDS011;58097;48.364;-1.224;2023-05-29T06:58:05;16.08;;;6.18;;
70543;SDS011;58097;48.364;-1.224;2023-05-29T07:00:31;13.75;;;5.35;;
70543;SDS011;58097;48.364;-1.224;2023-05-29T07:02:57;13.38;;;5.72;;
70543;SDS011;58097;48.364;-1.224;2023-05-29T07:05:22;17.38;;;5.60;;
70543;SDS011;58097;48.364;-1.224;2023-05-29T07:07:47;16.15;;;6.13;;
70543;SDS011;58097;48.364;-1.224;2023-05-29T07:10:13;13.70;;;5.88;;
70543;SDS011;58097;48.364;-1.224;2023-05-29T07:12:38;17.33;;;5.55;;
70543;SDS011;58097;48.364;-1.224;2023-05-29T07:15:03;17.50;;;6.70;;
70543;SDS011;58097;48.364;-1.224;2023-05-29T07:17:29;13.77;;;5.88;;
70543;SDS011;58097;48.364;-1.224;2023-05-29T07:19:54;16.48;;;6.03;;
70543;SDS011;58097;48.364;-1.224;2023-05-29T07:22:20;14.75;;;6.65;;
70543;SDS011;58097;48.364;-1.224;2023-05-29T07:24:46;12.52;;;6.10;;
70543;SDS011;58097;48.364;-1.224;2023-05-29T07:27:11;16.92;;;6.70;;
70543;SDS011;58097;48.364;-1.224;2023-05-29T07:29:36;19.13;;;5.88;;
70543;SDS011;58097;48.364;-1.224;2023-05-29T07:32:02;13.10;;;5.85;;
70543;SDS011;58097;48.364;-1.224;2023-05-29T07:34:27;17.50;;;5.88;;
70543;SDS011;58097;48.364;-1.224;2023-05-29T07:36:57;15.25;;;6.68;;
70543;SDS011;58097;48.364;-1.224;2023-05-29T07:39:24;14.40;;;5.82;;
70543;SDS011;58097;48.364;-1.224;2023-05-29T07:41:50;16.55;;;7.10;;
70543;SDS011;58097;48.364;-1.224;2023-05-29T07:44:15;17.35;;;6.97;;
70543;SDS011;58097;48.364;-1.224;2023-05-29T07:46:41;15.68;;;5.85;;
70543;SDS011;58097;48.364;-1.224;2023-05-29T07:49:06;18.20;;;6.72;;
70543;SDS011;58097;48.364;-1.224;2023-05-29T07:51:31;13.48;;;6.38;;
70543;SDS011;58097;48.364;-1.224;2023-05-29T07:53:57;15.48;;;6.63;;
70543;SDS011;58097;48.364;-1.224;2023-05-29T07:56:22;14.57;;;7.00;;
70543;SDS011;58097;48.364;-1.224;2023-05-29T07:58:48;15.50;;;6.75;;
70543;SDS011;58097;48.364;-1.224;2023-05-29T08:01:13;12.18;;;6.03;;
70543;SDS011;58097;48.364;-1.224;2023-05-29T08:03:40;20.77;;;6.05;;
70543;SDS011;58097;48.364;-1.224;2023-05-29T08:06:06;14.45;;;5.70;;
70543;SDS011;58097;48.364;-1.224;2023-05-29T08:08:32;14.57;;;5.43;;
70543;SDS011;58097;48.364;-1.224;2023-05-29T08:10:57;13.85;;;6.07;;
70543;SDS011;58097;48.364;-1.224;2023-05-29T08:13:22;12.95;;;6.05;;
70543;SDS011;58097;48.364;-1.224;2023-05-29T08:15:48;12.32;;;5.40;;
70543;SDS011;58097;48.364;-1.224;2023-05-29T08:18:13;9.88;;;6.07;;
70543;SDS011;58097;48.364;-1.224;2023-05-29T08:20:39;13.23;;;5.80;;
70543;SDS011;58097;48.364;-1.224;2023-05-29T08:23:04;12.20;;;5.93;;
70543;SDS011;58097;48.364;-1.224;2023-05-29T08:25:30;11.70;;;5.80;;
70543;SDS011;58097;48.364;-1.224;2023-05-29T08:27:55;11.38;;;6.15;;
70543;SDS011;58097;48.364;-1.224;2023-05-29T08:30:21;19.80;;;7.40;;
70543;SDS011;58097;48.364;-1.224;2023-05-29T08:32:46;14.45;;;6.47;;
70543;SDS011;58097;48.364;-1.224;2023-05-29T08:35:12;13.32;;;6.82;;
70543;SDS011;58097;48.364;-1.224;2023-05-29T08:37:38;16.50;;;6.53;;
70543;SDS011;58097;48.364;-1.224;2023-05-29T08:40:03;18.58;;;6.93;;
70543;SDS011;58097;48.364;-1.224;2023-05-29T08:42:33;15.73;;;6.35;;
70543;SDS011;58097;48.364;-1.224;2023-05-29T08:45:05;10.50;;;6.80;;
70543;SDS011;58097;48.364;-1.224;2023-05-29T08:47:34;14.13;;;6.55;;
70543;SDS011;58097;48.364;-1.224;2023-05-29T08:50:01;14.15;;;6.43;;
70543;SDS011;58097;48.364;-1.224;2023-05-29T08:52:27;12.93;;;7.20;;
70543;SDS011;58097;48.364;-1.224;2023-05-29T08:54:56;13.38;;;6.65;;
70543;SDS011;58097;48.364;-1.224;2023-05-29T08:57:23;21.15;;;7.22;;
70543;SDS011;58097;48.364;-1.224;2023-05-29T08:59:51;15.85;;;7.28;;
70543;SDS011;58097;48.364;-1.224;2023-05-29T09:02:17;15.70;;;7.45;;
70543;SDS011;58097;48.364;-1.224;2023-05-29T09:04:42;17.42;;;6.75;;
70543;SDS011;58097;48.364;-1.224;2023-05-29T09:07:13;17.02;;;7.88;;
70543;SDS011;58097;48.364;-1.224;2023-05-29T09:09:39;18.60;;;7.25;;
70543;SDS011;58097;48.364;-1.224;2023-05-29T09:12:05;16.75;;;6.68;;
70543;SDS011;58097;48.364;-1.224;2023-05-29T09:17:00;17.88;;;7.85;;
70543;SDS011;58097;48.364;-1.224;2023-05-29T09:19:26;15.35;;;7.53;;
70543;SDS011;58097;48.364;-1.224;2023-05-29T09:21:51;15.73;;;7.90;;
70543;SDS011;58097;48.364;-1.224;2023-05-29T09:24:24;18.88;;;7.53;;
70543;SDS011;58097;48.364;-1.224;2023-05-29T09:26:52;13.90;;;6.78;;
70543;SDS011;58097;48.364;-1.224;2023-05-29T09:29:18;15.32;;;7.50;;
70543;SDS011;58097;48.364;-1.224;2023-05-29T09:31:47;16.67;;;6.90;;
70543;SDS011;58097;48.364;-1.224;2023-05-29T09:34:12;10.43;;;6.93;;
70543;SDS011;58097;48.364;-1.224;2023-05-29T09:36:38;16.88;;;6.65;;
70543;SDS011;58097;48.364;-1.224;2023-05-29T09:39:03;11.43;;;6.65;;
70543;SDS011;58097;48.364;-1.224;2023-05-29T09:41:29;15.07;;;7.32;;
70543;SDS011;58097;48.364;-1.224;2023-05-29T09:43:56;11.35;;;6.68;;
70543;SDS011;58097;48.364;-1.224;2023-05-29T09:46:25;12.02;;;5.55;;
70543;SDS011;58097;48.364;-1.224;2023-05-29T09:48:51;14.43;;;6.53;;
70543;SDS011;58097;48.364;-1.224;2023-05-29T09:51:22;13.52;;;5.70;;
70543;SDS011;58097;48.364;-1.224;2023-05-29T09:53:48;16.17;;;6.20;;
70543;SDS011;58097;48.364;-1.224;2023-05-29T09:56:15;13.13;;;5.72;;
70543;SDS011;58097;48.364;-1.224;2023-05-29T09:58:42;15.55;;;6.07;;
70543;SDS011;58097;48.364;-1.224;2023-05-29T10:01:15;13.55;;;5.68;;
70543;SDS011;58097;48.364;-1.224;2023-05-29T10:03:43;14.85;;;5.80;;
70543;SDS011;58097;48.364;-1.224;2023-05-29T10:06:10;13.23;;;5.93;;
70543;SDS011;58097;48.364;-1.224;2023-05-29T10:08:43;12.80;;;5.10;;
70543;SDS011;58097;48.364;-1.224;2023-05-29T10:11:14;12.60;;;5.68;;
70543;SDS011;58097;48.364;-1.224;2023-05-29T10:13:46;14.27;;;6.47;;
70543;SDS011;58097;48.364;-1.224;2023-05-29T10:16:14;15.68;;;5.53;;
70543;SDS011;58097;48.364;-1.224;2023-05-29T10:18:46;17.40;;;5.57;;
70543;SDS011;58097;48.364;-1.224;2023-05-29T10:21:15;12.60;;;5.38;;
70543;SDS011;58097;48.364;-1.224;2023-05-29T10:23:43;13.95;;;5.22;;
70543;SDS011;58097;48.364;-1.224;2023-05-29T10:26:14;12.35;;;5.53;;
70543;SDS011;58097;48.364;-1.224;2023-05-29T10:28:46;15.45;;;4.65;;
70543;SDS011;58097;48.364;-1.224;2023-05-29T10:37:25;13.70;;;4.47;;
70543;SDS011;58097;48.364;-1.224;2023-05-29T10:40:07;12.05;;;5.13;;
70543;SDS011;58097;48.364;-1.224;2023-05-29T10:42:46;12.50;;;4.85;;
70543;SDS011;58097;48.364;-1.224;2023-05-29T10:45:55;11.82;;;4.90;;
70543;SDS011;58097;48.364;-1.224;2023-05-29T10:53:02;10.13;;;4.10;;
70543;SDS011;58097;48.364;-1.224;2023-05-29T10:55:33;11.80;;;4.50;;
70543;SDS011;58097;48.364;-1.224;2023-05-29T10:58:15;12.25;;;4.50;;
70543;SDS011;58097;48.364;-1.224;2023-05-29T11:00:44;13.10;;;4.38;;
70543;SDS011;58097;48.364;-1.224;2023-05-29T11:03:24;9.43;;;4.72;;
70543;SDS011;58097;48.364;-1.224;2023-05-29T11:08:58;13.07;;;4.68;;
70543;SDS011;58097;48.364;-1.224;2023-05-29T11:11:29;14.25;;;4.50;;
70543;SDS011;58097;48.364;-1.224;2023-05-29T11:14:04;9.15;;;4.18;;
70543;SDS011;58097;48.364;-1.224;2023-05-29T11:18:58;13.98;;;4.93;;
70543;SDS011;58097;48.364;-1.224;2023-05-29T11:24:03;9.95;;;3.80;;
70543;SDS011;58097;48.364;-1.224;2023-05-29T11:26:31;11.98;;;4.78;;
70543;SDS011;58097;48.364;-1.224;2023-05-29T11:28:58;13.73;;;4.32;;
70543;SDS011;58097;48.364;-1.224;2023-05-29T11:33:58;7.00;;;3.72;;
70543;SDS011;58097;48.364;-1.224;2023-05-29T11:36:25;11.43;;;4.07;;
70543;SDS011;58097;48.364;-1.224;2023-05-29T11:38:51;11.05;;;4.35;;
70543;SDS011;58097;48.364;-1.224;2023-05-29T11:41:17;11.15;;;4.97;;
70543;SDS011;58097;48.364;-1.224;2023-05-29T11:43:42;10.35;;;3.83;;
70543;SDS011;58097;48.364;-1.224;2023-05-29T11:46:17;10.60;;;4.05;;
70543;SDS011;58097;48.364;-1.224;2023-05-29T11:48:45;16.35;;;3.95;;
70543;SDS011;58097;48.364;-1.224;2023-05-29T11:51:11;14.57;;;4.13;;
70543;SDS011;58097;48.364;-1.224;2023-05-29T11:53:39;8.90;;;4.28;;
70543;SDS011;58097;48.364;-1.224;2023-05-29T11:56:06;17.63;;;3.85;;
70543;SDS011;58097;48.364;-1.224;2023-05-29T11:58:33;8.23;;;4.32;;
70543;SDS011;58097;48.364;-1.224;2023-05-29T12:00:59;10.18;;;4.50;;
70543;SDS011;58097;48.364;-1.224;2023-05-29T12:03:25;7.88;;;3.97;;
70543;SDS011;58097;48.364;-1.224;2023-05-29T12:05:51;10.90;;;4.07;;
70543;SDS011;58097;48.364;-1.224;2023-05-29T12:08:23;10.82;;;4.15;;
70543;SDS011;58097;48.364;-1.224;2023-05-29T12:10:50;8.38;;;3.35;;
70543;SDS011;58097;48.364;-1.224;2023-05-29T12:13:20;8.15;;;3.80;;
70543;SDS011;58097;48.364;-1.224;2023-05-29T12:15:47;8.18;;;3.85;;
70543;SDS011;58097;48.364;-1.224;2023-05-29T12:18:14;13.82;;;4.72;;
70543;SDS011;58097;48.364;-1.224;2023-05-29T12:20:40;9.15;;;3.85;;
70543;SDS011;58097;48.364;-1.224;2023-05-29T12:23:06;12.18;;;4.20;;
70543;SDS011;58097;48.364;-1.224;2023-05-29T12:25:33;8.85;;;3.97;;
70543;SDS011;58097;48.364;-1.224;2023-05-29T12:28:01;11.00;;;4.22;;
70543;SDS011;58097;48.364;-1.224;2023-05-29T12:30:27;7.90;;;3.70;;
70543;SDS011;58097;48.364;-1.224;2023-05-29T12:32:53;9.50;;;4.20;;
70543;SDS011;58097;48.364;-1.224;2023-05-29T12:35:20;12.88;;;4.65;;
70543;SDS011;58097;48.364;-1.224;2023-05-29T12:40:21;11.70;;;3.83;;
70543;SDS011;58097;48.364;-1.224;2023-05-29T12:42:48;7.82;;;3.85;;
70543;SDS011;58097;48.364;-1.224;2023-05-29T12:45:18;10.77;;;3.90;;
70543;SDS011;58097;48.364;-1.224;2023-05-29T12:47:44;11.55;;;3.80;;
70543;SDS011;58097;48.364;-1.224;2023-05-29T12:52:46;9.63;;;4.03;;
70543;SDS011;58097;48.364;-1.224;2023-05-29T12:55:17;9.35;;;4.28;;
70543;SDS011;58097;48.364;-1.224;2023-05-29T12:57:43;9.75;;;4.25;;
70543;SDS011;58097;48.364;-1.224;2023-05-29T13:00:11;8.25;;;4.25;;
70543;SDS011;58097;48.364;-1.224;2023-05-29T13:02:36;12.57;;;4.05;;
70543;SDS011;58097;48.364;-1.224;2023-05-29T13:05:02;5.20;;;3.83;;
70543;SDS011;58097;48.364;-1.224;2023-05-29T13:07:27;12.27;;;4.10;;
70543;SDS011;58097;48.364;-1.224;2023-05-29T13:09:53;9.45;;;4.75;;
70543;SDS011;58097;48.364;-1.224;2023-05-29T13:12:18;15.13;;;4.68;;
70543;SDS011;58097;48.364;-1.224;2023-05-29T13:14:43;9.43;;;3.88;;
70543;SDS011;58097;48.364;-1.224;2023-05-29T13:17:09;11.15;;;4.10;;
70543;SDS011;58097;48.364;-1.224;2023-05-29T13:19:34;10.15;;;3.88;;
70543;SDS011;58097;48.364;-1.224;2023-05-29T13:21:59;8.98;;;4.00;;
70543;SDS011;58097;48.364;-1.224;2023-05-29T13:24:25;8.88;;;4.18;;
70543;SDS011;58097;48.364;-1.224;2023-05-29T13:26:50;8.65;;;3.63;;
70543;SDS011;58097;48.364;-1.224;2023-05-29T13:29:16;9.05;;;3.75;;
70543;SDS011;58097;48.364;-1.224;2023-05-29T13:31:41;9.35;;;4.25;;
70543;SDS011;58097;48.364;-1.224;2023-05-29T13:34:06;9.13;;;4.13;;
70543;SDS011;58097;48.364;-1.224;2023-05-29T13:36:32;7.47;;;4.13;;
70543;SDS011;58097;48.364;-1.224;2023-05-29T13:38:57;11.43;;;4.35;;
70543;SDS011;58097;48.364;-1.224;2023-05-29T13:41:22;8.18;;;4.43;;
70543;SDS011;58097;48.364;-1.224;2023-05-29T13:43:48;9.40;;;4.20;;
70543;SDS011;58097;48.364;-1.224;2023-05-29T13:46:13;12.30;;;4.47;;
70543;SDS011;58097;48.364;-1.224;2023-05-29T13:48:38;11.52;;;4.15;;
70543;SDS011;58097;48.364;-1.224;2023-05-29T13:51:04;7.00;;;4.07;;
70543;SDS011;58097;48.364;-1.224;2023-05-29T13:53:30;9.40;;;4.55;;
70543;SDS011;58097;48.364;-1.224;2023-05-29T13:55:56;9.00;;;4.18;;
70543;SDS011;58097;48.364;-1.224;2023-05-29T13:58:21;8.38;;;3.90;;
70543;SDS011;58097;48.364;-1.224;2023-05-29T14:00:46;10.27;;;4.50;;
70543;SDS011;58097;48.364;-1.224;2023-05-29T14:03:12;8.48;;;4.40;;
70543;SDS011;58097;48.364;-1.224;2023-05-29T14:05:37;7.32;;;4.07;;
70543;SDS011;58097;48.364;-1.224;2023-05-29T14:08:03;8.95;;;4.07;;
70543;SDS011;58097;48.364;-1.224;2023-05-29T14:10:28;7.85;;;3.70;;
70543;SDS011;58097;48.364;-1.224;2023-05-29T14:12:53;6.63;;;3.63;;
70543;SDS011;58097;48.364;-1.224;2023-05-29T14:15:18;6.80;;;3.65;;
70543;SDS011;58097;48.364;-1.224;2023-05-29T14:17:44;12.48;;;4.55;;
70543;SDS011;58097;48.364;-1.224;2023-05-29T14:20:09;10.10;;;3.80;;
70543;SDS011;58097;48.364;-1.224;2023-05-29T14:22:35;7.72;;;4.20;;
70543;SDS011;58097;48.364;-1.224;2023-05-29T14:25:02;7.82;;;3.58;;
70543;SDS011;58097;48.364;-1.224;2023-05-29T14:27:29;11.82;;;4.07;;
70543;SDS011;58097;48.364;-1.224;2023-05-29T14:29:54;9.38;;;3.70;;
70543;SDS011;58097;48.364;-1.224;2023-05-29T14:32:20;13.73;;;3.92;;
70543;SDS011;58097;48.364;-1.224;2023-05-29T14:34:45;13.63;;;4.90;;
70543;SDS011;58097;48.364;-1.224;2023-05-29T14:37:11;13.63;;;4.30;;
70543;SDS011;58097;48.364;-1.224;2023-05-29T14:39:36;10.40;;;4.47;;
70543;SDS011;58097;48.364;-1.224;2023-05-29T14:42:02;10.65;;;4.85;;
70543;SDS011;58097;48.364;-1.224;2023-05-29T14:44:27;13.95;;;3.92;;
70543;SDS011;58097;48.364;-1.224;2023-05-29T14:46:53;7.97;;;4.03;;
70543;SDS011;58097;48.364;-1.224;2023-05-29T14:49:18;9.88;;;3.40;;
70543;SDS011;58097;48.364;-1.224;2023-05-29T14:51:44;10.82;;;3.80;;
70543;SDS011;58097;48.364;-1.224;2023-05-29T14:54:10;11.50;;;4.43;;
70543;SDS011;58097;48.364;-1.224;2023-05-29T14:56:36;7.57;;;3.92;;